Terminal Aerodrome Forecast
Issued by NWS

Current Version | Previous Version | Graphics & Text | Print | Product List | Glossary On
Versions: 1 2 3 4 5 6 7 8 9 10 11 12 13 14 15 16 17 18 19 20
000
FTUS41 KPBZ 210500
TAFMGW
TAF
KMGW 210540Z 2106/2206 18006KT P6SM SCT050
     FM211100 20007KT P6SM VCSH BKN015
     FM211600 24012G22KT 4SM -SHRA OVC030
     FM212300 28010KT P6SM BKN035=

USA.gov is the U.S. government's official web portal to all federal, state and local government web resources and services.